Time;durP1;ratioP1;P1;durP2;ratioP2;P2;SDS_P1;SDS_P2;PMS_P1;PMS_P2;Temp;Humidity;BMP_temperature;BMP_pressure;BME280_temperature;BME280_humidity;BME280_pressure;Samples;Min_cycle;Max_cycle;Signal;HPM_P1;HPM_P2
2022/03/03 00:01:56;;;;;;;1090.15;998.90;;;;;;;-0.95;100.00;101756.13;5027690;28;20056;-80
2022/03/03 00:04:29;;;;;;;1105.18;999.90;;;;;;;-0.96;100.00;101757.16;5031347;28;20049;-81
2022/03/03 00:07:03;;;;;;;1106.25;999.90;;;;;;;-0.95;100.00;101773.03;5034574;28;20125;-81
2022/03/03 00:09:31;;;;;;;1130.25;999.90;;;;;;;-0.99;100.00;101768.22;5020191;28;20058;-81
2022/03/03 00:12:07;;;;;;;1142.78;999.90;;;;;;;-0.88;100.00;101776.63;5031843;28;20060;-80
2022/03/03 00:14:40;;;;;;;1147.30;999.90;;;;;;;-0.79;100.00;101795.31;5031198;28;20041;-80
2022/03/03 00:17:15;;;;;;;1159.30;999.90;;;;;;;-0.80;100.00;101781.13;5017618;28;20077;-80
2022/03/03 00:19:48;;;;;;;1165.03;999.90;;;;;;;-0.75;100.00;101794.75;5030566;28;20052;-81
2022/03/03 00:22:21;;;;;;;1148.47;999.90;;;;;;;-0.76;100.00;101774.41;5019691;28;20050;-80
2022/03/03 00:24:54;;;;;;;1145.13;999.90;;;;;;;-0.89;100.00;101769.63;5045925;28;20041;-80
2022/03/03 00:27:29;;;;;;;1161.65;999.90;;;;;;;-0.79;100.00;101771.25;5027780;28;20045;-80
2022/03/03 00:30:02;;;;;;;1162.40;999.90;;;;;;;-0.89;100.00;101760.78;5026390;28;20053;-81
2022/03/03 00:32:30;;;;;;;1169.95;999.90;;;;;;;-0.79;100.00;101769.38;5027390;28;20041;-81
2022/03/03 00:34:58;;;;;;;1166.68;999.90;;;;;;;-0.86;100.00;101776.47;5025647;28;20049;-81
2022/03/03 00:37:31;;;;;;;1171.85;999.90;;;;;;;-1.02;100.00;101777.41;5034702;28;20044;-80
2022/03/03 00:40:06;;;;;;;1165.65;999.90;;;;;;;-1.01;100.00;101780.91;5021109;28;20053;-81
2022/03/03 00:42:36;;;;;;;1175.82;999.90;;;;;;;-1.07;100.00;101772.56;5029729;28;20053;-80
2022/03/03 00:45:10;;;;;;;1177.97;999.90;;;;;;;-0.88;100.00;101781.16;5031861;28;20053;-81
2022/03/03 00:47:43;;;;;;;1176.57;999.90;;;;;;;-0.92;100.00;101774.50;5023147;28;20124;-81
2022/03/03 00:50:17;;;;;;;1177.53;999.90;;;;;;;-0.98;100.00;101781.41;5029908;28;20053;-81
2022/03/03 00:52:50;;;;;;;1175.15;999.90;;;;;;;-1.01;100.00;101786.25;5025365;28;20053;-80
2022/03/03 00:55:23;;;;;;;1168.55;999.90;;;;;;;-1.04;100.00;101769.56;5024572;28;20057;-80
2022/03/03 00:57:53;;;;;;;1178.53;999.90;;;;;;;-0.99;100.00;101771.72;5029933;28;20080;-80
2022/03/03 01:00:26;;;;;;;1186.13;999.90;;;;;;;-0.89;100.00;101772.28;5029808;28;20517;-80
2022/03/03 01:02:59;;;;;;;1192.20;999.90;;;;;;;-0.94;100.00;101773.84;5027347;28;20057;-80
2022/03/03 01:05:28;;;;;;;1194.20;999.90;;;;;;;-0.93;100.00;101762.16;5019581;28;20049;-80
2022/03/03 01:07:56;;;;;;;1192.05;999.90;;;;;;;-1.02;100.00;101748.03;5029577;28;20045;-81
2022/03/03 01:10:24;;;;;;;1196.97;999.90;;;;;;;-1.04;100.00;101753.53;5016984;28;20053;-80
2022/03/03 01:12:58;;;;;;;1196.82;999.90;;;;;;;-1.04;100.00;101761.56;5020324;28;20417;-80
2022/03/03 01:15:27;;;;;;;1198.38;999.90;;;;;;;-0.92;100.00;101743.25;5031053;28;20057;-80
2022/03/03 01:17:55;;;;;;;1204.03;999.90;;;;;;;-0.95;100.00;101748.97;5015735;28;20050;-81
2022/03/03 01:20:28;;;;;;;1200.88;999.90;;;;;;;-1.15;100.00;101734.41;5026316;28;20050;-81
2022/03/03 01:23:01;;;;;;;1200.45;999.90;;;;;;;-1.10;100.00;101738.19;5029624;28;20639;-81
2022/03/03 01:25:35;;;;;;;1201.95;999.90;;;;;;;-1.11;100.00;101722.34;5026499;28;20048;-80
2022/03/03 01:28:09;;;;;;;1203.25;999.90;;;;;;;-1.13;100.00;101725.19;5037471;28;20049;-80
2022/03/03 01:30:42;;;;;;;1201.95;999.90;;;;;;;-1.10;100.00;101726.69;5030873;28;20498;-81
2022/03/03 01:33:12;;;;;;;1205.90;999.90;;;;;;;-1.00;100.00;101734.47;5019463;28;20062;-81
2022/03/03 01:35:45;;;;;;;1210.82;999.90;;;;;;;-0.99;100.00;101725.47;5033201;28;20046;-80
2022/03/03 01:38:18;;;;;;;1214.53;999.90;;;;;;;-1.00;100.00;101724.59;5026363;28;20041;-80
2022/03/03 01:40:46;;;;;;;1217.13;999.90;;;;;;;-0.95;100.00;101724.91;5032637;28;20709;-80
2022/03/03 01:43:21;;;;;;;1219.47;999.90;;;;;;;-0.97;100.00;101716.22;5042641;28;20061;-80
2022/03/03 01:45:49;;;;;;;1221.57;999.90;;;;;;;-0.94;100.00;101721.25;5036253;28;20049;-81
2022/03/03 01:48:17;;;;;;;1225.03;999.90;;;;;;;-0.97;100.00;101721.56;5021327;28;20064;-81
2022/03/03 01:50:52;;;;;;;1229.40;999.90;;;;;;;-1.00;100.00;101708.59;5026582;28;20045;-81
2022/03/03 01:53:25;;;;;;;1229.85;999.90;;;;;;;-0.91;100.00;101722.69;5025090;28;20057;-80
2022/03/03 01:55:55;;;;;;;1236.00;999.90;;;;;;;-0.91;100.00;101725.38;5046141;28;20050;-81
2022/03/03 01:58:29;;;;;;;1236.10;999.90;;;;;;;-0.79;100.00;101720.47;5022417;28;20054;-80
2022/03/03 02:01:03;;;;;;;1238.93;999.90;;;;;;;-0.99;100.00;101720.13;5020436;28;20046;-81
2022/03/03 02:03:36;;;;;;;1239.20;999.90;;;;;;;-0.98;100.00;101719.94;5036558;28;20046;-81
2022/03/03 02:06:09;;;;;;;1244.35;999.90;;;;;;;-0.94;100.00;101715.06;5027656;28;20054;-81
2022/03/03 02:08:38;;;;;;;1245.97;999.90;;;;;;;-0.91;100.00;101704.84;5012351;28;20045;-80
2022/03/03 02:11:11;;;;;;;1246.95;999.90;;;;;;;-1.02;100.00;101699.94;5026796;28;20045;-81
2022/03/03 02:13:41;;;;;;;1249.70;999.90;;;;;;;-0.97;100.00;101696.72;5030152;28;20046;-80
2022/03/03 02:16:14;;;;;;;1249.90;999.90;;;;;;;-0.95;100.00;101692.00;5026279;28;20053;-81
2022/03/03 02:18:43;;;;;;;1253.95;999.90;;;;;;;-1.05;100.00;101692.25;5026618;28;20056;-80
2022/03/03 02:21:15;;;;;;;1257.35;999.90;;;;;;;-1.17;100.00;101681.16;5026628;28;20053;-81
2022/03/03 02:23:44;;;;;;;1259.70;999.90;;;;;;;-1.06;100.00;101701.28;5013248;28;20072;-80
2022/03/03 02:26:21;;;;;;;1260.47;999.90;;;;;;;-1.02;100.00;101699.94;5028958;28;20054;-80
2022/03/03 02:28:54;;;;;;;1261.45;999.90;;;;;;;-0.95;100.00;101692.84;5031027;28;20041;-81
2022/03/03 02:31:27;;;;;;;1262.20;999.90;;;;;;;-0.89;100.00;101694.78;5026798;28;20061;-80
2022/03/03 02:34:01;;;;;;;1267.97;999.90;;;;;;;-0.98;100.00;101693.22;5019293;28;20046;-81
2022/03/03 02:36:36;;;;;;;1269.03;999.90;;;;;;;-0.93;100.00;101706.84;5021251;28;20781;-80
2022/03/03 02:39:06;;;;;;;1263.97;999.90;;;;;;;-1.01;100.00;101696.22;5020944;28;20049;-80
2022/03/03 02:41:39;;;;;;;1272.25;999.90;;;;;;;-1.03;100.00;101701.75;5023938;28;20521;-81
2022/03/03 02:44:07;;;;;;;1267.82;999.90;;;;;;;-1.00;100.00;101697.91;5025769;28;20049;-80
2022/03/03 02:46:40;;;;;;;1270.55;999.90;;;;;;;-1.23;100.00;101706.72;5026432;28;20525;-80
2022/03/03 02:49:14;;;;;;;1273.18;999.90;;;;;;;-1.30;100.00;101697.72;5027326;28;20053;-81
2022/03/03 02:51:43;;;;;;;1275.93;999.90;;;;;;;-1.29;100.00;101691.41;5026714;28;20053;-80
2022/03/03 02:54:16;;;;;;;1276.05;999.90;;;;;;;-1.21;100.00;101686.00;5024616;28;20057;-81
2022/03/03 02:59:40;;;;;;;1277.30;999.90;;;;;;;-1.15;100.00;101679.13;5029979;28;20053;-81
2022/03/03 03:02:14;;;;;;;1280.85;999.90;;;;;;;-1.21;100.00;101679.84;5045433;28;20057;-81
2022/03/03 03:04:47;;;;;;;1277.78;999.90;;;;;;;-1.18;100.00;101690.16;5026425;28;20601;-81
2022/03/03 03:07:16;;;;;;;1281.13;999.90;;;;;;;-1.22;100.00;101678.16;5029648;28;20045;-80
2022/03/03 03:09:49;;;;;;;1278.45;999.90;;;;;;;-1.18;100.00;101676.81;5035895;28;20037;-81
2022/03/03 03:12:17;;;;;;;1282.03;999.90;;;;;;;-1.13;100.00;101671.78;5025249;28;20077;-81
2022/03/03 03:14:50;;;;;;;1282.75;999.90;;;;;;;-1.08;100.00;101664.06;5036175;28;20042;-80
2022/03/03 03:17:19;;;;;;;1282.88;999.90;;;;;;;-1.07;100.00;101654.19;5018887;28;20512;-80
2022/03/03 03:19:52;;;;;;;1285.97;999.90;;;;;;;-1.12;100.00;101659.25;5017632;28;20056;-81
2022/03/03 03:22:21;;;;;;;1287.18;999.90;;;;;;;-1.07;100.00;101660.38;5031677;28;20518;-81
2022/03/03 03:24:54;;;;;;;1287.50;999.90;;;;;;;-1.09;100.00;101656.19;5025673;28;20042;-81
2022/03/03 03:27:28;;;;;;;1290.30;999.90;;;;;;;-1.06;100.00;101650.53;5038540;28;20061;-80
2022/03/03 03:30:01;;;;;;;1293.75;999.90;;;;;;;-1.23;100.00;101639.97;5029093;28;20417;-81
2022/03/03 03:32:34;;;;;;;1293.15;999.90;;;;;;;-1.18;100.00;101655.44;5028174;28;20044;-80
2022/03/03 03:35:09;;;;;;;1290.32;999.90;;;;;;;-1.27;100.00;101649.34;5031253;28;20053;-80
2022/03/03 03:37:38;;;;;;;1291.25;999.90;;;;;;;-1.35;100.00;101649.38;5023923;28;20041;-80
2022/03/03 03:40:12;;;;;;;1288.90;999.90;;;;;;;-1.33;100.00;101654.56;5035717;28;20071;-80
2022/03/03 03:42:41;;;;;;;1286.97;999.90;;;;;;;-1.44;100.00;101658.44;5030459;28;20064;-81
2022/03/03 03:45:10;;;;;;;1286.85;999.90;;;;;;;-1.60;100.00;101654.88;5030784;28;20049;-81
2022/03/03 03:47:39;;;;;;;1284.15;999.90;;;;;;;-1.54;100.00;101656.81;5030027;28;20410;-80
2022/03/03 03:50:14;;;;;;;1284.15;999.90;;;;;;;-1.63;100.00;101641.03;5029511;28;20049;-81
2022/03/03 03:52:48;;;;;;;1285.47;999.90;;;;;;;-1.55;100.00;101654.34;5030374;28;20045;-81
2022/03/03 03:55:17;;;;;;;1285.20;999.90;;;;;;;-1.62;100.00;101642.69;5023970;28;20057;-81
2022/03/03 03:57:45;;;;;;;1284.90;999.90;;;;;;;-1.52;100.00;101643.28;5028610;28;20060;-81
2022/03/03 04:00:19;;;;;;;1286.63;999.90;;;;;;;-1.52;100.00;101642.47;5030734;28;20076;-81
2022/03/03 04:02:52;;;;;;;1286.03;999.90;;;;;;;-1.51;100.00;101649.50;5028282;28;20050;-80
2022/03/03 04:05:25;;;;;;;1284.05;999.90;;;;;;;-1.67;100.00;101632.56;5032715;28;20060;-80
2022/03/03 04:07:56;;;;;;;1284.20;999.90;;;;;;;-1.61;100.00;101625.69;5030664;28;20045;-81
2022/03/03 04:10:30;;;;;;;1286.53;999.90;;;;;;;-1.49;100.00;101626.94;5037596;28;20044;-81
2022/03/03 04:13:03;;;;;;;1287.28;999.90;;;;;;;-1.56;100.00;101650.84;5021323;28;20033;-81
2022/03/03 04:15:36;;;;;;;1285.97;999.90;;;;;;;-1.61;100.00;101655.03;5028173;28;20033;-80
2022/03/03 04:18:04;;;;;;;1286.72;999.90;;;;;;;-1.59;100.00;101648.53;5025556;28;20049;-81
2022/03/03 04:20:37;;;;;;;1287.32;999.90;;;;;;;-1.51;100.00;101652.16;5027083;28;20053;-81
2022/03/03 04:23:12;;;;;;;1286.97;999.90;;;;;;;-1.49;100.00;101648.31;5024012;28;20062;-81
2022/03/03 04:25:45;;;;;;;1286.03;999.90;;;;;;;-1.67;100.00;101642.38;5028053;28;20049;-80
2022/03/03 04:28:18;;;;;;;1280.68;999.90;;;;;;;-1.69;100.00;101645.22;5026777;28;20053;-81
2022/03/03 04:30:51;;;;;;;1281.63;999.90;;;;;;;-1.80;100.00;101643.78;5027251;28;20054;-81
2022/03/03 04:33:24;;;;;;;1279.50;999.90;;;;;;;-1.74;100.00;101650.25;5036135;28;20051;-81
2022/03/03 04:35:58;;;;;;;1281.43;999.90;;;;;;;-1.72;100.00;101626.91;5023231;28;20053;-80
2022/03/03 04:38:28;;;;;;;1281.60;999.90;;;;;;;-1.79;100.00;101642.78;5034642;28;20064;-80
2022/03/03 04:40:56;;;;;;;1280.93;999.90;;;;;;;-1.76;100.00;101622.94;5019735;28;20057;-81
2022/03/03 04:43:29;;;;;;;1278.97;999.90;;;;;;;-1.86;100.00;101616.97;5026992;28;20056;-81
2022/03/03 04:46:02;;;;;;;1276.97;999.90;;;;;;;-2.01;100.00;101620.38;5042799;28;20044;-81
2022/03/03 04:48:35;;;;;;;1280.00;999.90;;;;;;;-1.92;100.00;101611.34;5020632;28;20045;-81
2022/03/03 04:51:09;;;;;;;1281.45;999.90;;;;;;;-1.84;100.00;101589.09;5034855;28;20057;-81
2022/03/03 04:53:43;;;;;;;1282.15;999.90;;;;;;;-1.89;100.00;101602.16;5028856;28;20049;-81
2022/03/03 04:56:16;;;;;;;1283.75;999.90;;;;;;;-1.80;100.00;101586.91;5029149;28;20054;-81
2022/03/03 04:58:44;;;;;;;1287.13;999.90;;;;;;;-1.74;100.00;101592.38;5028518;28;20054;-82
2022/03/03 05:01:18;;;;;;;1282.90;999.90;;;;;;;-1.83;100.00;101577.44;5019529;28;20525;-81
2022/03/03 05:03:46;;;;;;;1287.68;999.90;;;;;;;-1.82;100.00;101580.91;5031684;28;20049;-82
2022/03/03 05:06:19;;;;;;;1288.40;999.90;;;;;;;-1.77;100.00;101579.41;5021674;28;20498;-81
2022/03/03 05:08:53;;;;;;;1287.03;999.90;;;;;;;-1.70;100.00;101582.19;5028891;28;20403;-81
2022/03/03 05:11:27;;;;;;;1288.32;999.90;;;;;;;-1.72;100.00;101574.34;5035009;28;20485;-82
2022/03/03 05:14:00;;;;;;;1286.60;999.90;;;;;;;-1.72;100.00;101577.03;5022566;28;20052;-81
2022/03/03 05:16:33;;;;;;;1287.82;999.90;;;;;;;-1.81;100.00;101578.09;5025292;28;20041;-81
2022/03/03 05:19:06;;;;;;;1288.20;999.90;;;;;;;-1.75;100.00;101574.72;5028365;28;20111;-81
2022/03/03 05:21:34;;;;;;;1284.85;999.90;;;;;;;-1.87;100.00;101578.78;5025713;28;20049;-81
2022/03/03 05:24:09;;;;;;;1284.78;999.90;;;;;;;-1.91;100.00;101586.28;5045748;28;20057;-81
2022/03/03 05:26:42;;;;;;;1285.47;999.90;;;;;;;-2.07;100.00;101568.56;5030468;28;20076;-82
2022/03/03 05:29:15;;;;;;;1282.45;999.90;;;;;;;-2.08;100.00;101584.72;5029743;28;20537;-81
2022/03/03 05:31:48;;;;;;;1284.57;999.90;;;;;;;-2.24;100.00;101612.28;5021912;28;20072;-82
2022/03/03 05:34:21;;;;;;;1281.05;999.90;;;;;;;-2.45;100.00;101594.19;5030702;28;20060;-80
2022/03/03 05:36:49;;;;;;;1283.30;999.90;;;;;;;-2.37;100.00;101609.34;5022975;28;20057;-81
2022/03/03 05:39:24;;;;;;;1283.90;999.90;;;;;;;-2.23;100.00;101609.44;5028227;28;20048;-81
2022/03/03 05:41:55;;;;;;;1286.55;999.90;;;;;;;-2.36;100.00;101603.84;5035949;28;20044;-82
2022/03/03 05:44:24;;;;;;;1283.55;999.90;;;;;;;-2.29;100.00;101630.63;5042758;28;20057;-80
2022/03/03 05:46:59;;;;;;;1283.18;999.90;;;;;;;-2.30;100.00;101642.31;5021575;28;20049;-81
2022/03/03 05:49:27;;;;;;;1282.38;999.90;;;;;;;-2.23;100.00;101641.44;5028934;28;20046;-81
2022/03/03 05:52:00;;;;;;;1279.15;999.90;;;;;;;-2.44;100.00;101625.19;5016380;28;20053;-81
2022/03/03 05:54:35;;;;;;;1280.63;999.90;;;;;;;-2.38;100.00;101647.66;5030972;28;20051;-81
2022/03/03 05:57:16;;;;;;;1277.95;999.90;;;;;;;-2.46;100.00;101653.81;5023472;28;20050;-81
2022/03/03 05:59:51;;;;;;;1280.22;999.90;;;;;;;-2.44;100.00;101638.50;5022689;28;20045;-81
2022/03/03 06:02:24;;;;;;;1280.40;999.90;;;;;;;-2.38;100.00;101637.00;5046822;28;20060;-81
2022/03/03 06:04:58;;;;;;;1276.43;999.90;;;;;;;-2.29;100.00;101639.47;5024226;28;20049;-81
2022/03/03 06:07:39;;;;;;;1278.93;999.90;;;;;;;-2.16;100.00;101643.44;5027435;28;20056;-81
2022/03/03 06:10:19;;;;;;;1279.82;999.90;;;;;;;-2.18;100.00;101648.09;5033959;28;20056;-81
2022/03/03 06:13:06;;;;;;;1278.15;999.90;;;;;;;-2.13;100.00;101649.25;5024151;28;20574;-82
2022/03/03 06:15:39;;;;;;;1282.13;999.90;;;;;;;-2.25;100.00;101640.78;5019092;28;20041;-81
2022/03/03 06:18:09;;;;;;;1282.03;999.90;;;;;;;-2.20;100.00;101640.25;5034986;28;20049;-81
2022/03/03 06:20:38;;;;;;;1283.80;999.90;;;;;;;-2.18;100.00;101658.75;5023923;28;20045;-81
2022/03/03 06:23:11;;;;;;;1286.28;999.90;;;;;;;-2.33;100.00;101648.81;5021224;28;20049;-81
2022/03/03 06:25:46;;;;;;;1278.90;999.90;;;;;;;-2.48;100.00;101651.34;5028752;28;20044;-81
2022/03/03 06:28:19;;;;;;;1274.90;999.90;;;;;;;-2.57;100.00;101668.34;5030193;28;20694;-81
2022/03/03 06:30:52;;;;;;;1282.40;999.90;;;;;;;-2.47;100.00;101669.00;5028945;28;20045;-81
2022/03/03 06:33:26;;;;;;;1281.00;999.90;;;;;;;-2.49;100.00;101657.66;5025807;28;20060;-81
2022/03/03 06:35:59;;;;;;;1281.93;999.90;;;;;;;-2.32;100.00;101673.63;5029694;28;20041;-81
2022/03/03 06:38:27;;;;;;;1278.30;999.90;;;;;;;-2.50;100.00;101673.81;5026978;28;20057;-81
2022/03/03 06:40:57;;;;;;;1281.50;999.90;;;;;;;-2.50;100.00;101666.69;5029282;28;20049;-81
2022/03/03 06:43:30;;;;;;;1277.93;999.90;;;;;;;-2.49;100.00;101670.16;5030762;28;20057;-83
2022/03/03 06:45:59;;;;;;;1276.85;999.90;;;;;;;-2.34;100.00;101664.97;5027164;28;20482;-81
2022/03/03 06:48:32;;;;;;;1274.13;999.90;;;;;;;-2.29;100.00;101662.63;5023634;28;20059;-81
2022/03/03 06:51:06;;;;;;;1273.43;999.90;;;;;;;-2.34;100.00;101663.13;5024069;28;20103;-82
2022/03/03 06:53:35;;;;;;;1276.10;999.90;;;;;;;-2.13;100.00;101665.25;5029402;28;20377;-83
2022/03/03 06:56:12;;;;;;;1274.97;999.90;;;;;;;-2.25;100.00;101664.78;5021632;28;20486;-82
2022/03/03 06:58:47;;;;;;;1275.05;999.90;;;;;;;-2.24;100.00;101677.13;5019470;28;20050;-82
2022/03/03 07:01:22;;;;;;;1273.82;999.90;;;;;;;-2.14;100.00;101676.09;5026850;28;20374;-82
2022/03/03 07:03:57;;;;;;;1274.55;999.90;;;;;;;-2.13;100.00;101670.56;5020016;28;20054;-82
2022/03/03 07:06:26;;;;;;;1273.95;999.90;;;;;;;-2.03;100.00;101666.88;5033871;28;20049;-82
2022/03/03 07:08:55;;;;;;;1275.55;999.90;;;;;;;-2.13;100.00;101664.41;5021287;28;20054;-82
2022/03/03 07:11:31;;;;;;;1285.63;999.90;;;;;;;-1.98;100.00;101661.88;5034627;28;20606;-82
2022/03/03 07:14:05;;;;;;;1277.72;999.90;;;;;;;-1.85;100.00;101675.50;5034416;28;20409;-83
2022/03/03 07:16:42;;;;;;;1283.35;999.90;;;;;;;-1.88;100.00;101666.00;5020061;28;20046;-82
2022/03/03 07:19:25;;;;;;;1293.45;999.90;;;;;;;-1.88;100.00;101671.34;5022552;28;20066;-82
2022/03/03 07:22:07;;;;;;;1286.55;999.90;;;;;;;-1.82;100.00;101677.81;5026841;28;20049;-82
2022/03/03 07:24:45;;;;;;;1287.70;999.90;;;;;;;-1.75;100.00;101670.78;5023554;28;20042;-83
2022/03/03 07:27:23;;;;;;;1291.03;999.90;;;;;;;-1.76;100.00;101673.63;5030879;28;20037;-83
2022/03/03 07:30:00;;;;;;;1291.40;999.90;;;;;;;-1.62;100.00;101661.38;5031186;28;21076;-82
2022/03/03 07:32:35;;;;;;;1295.82;999.90;;;;;;;-1.70;100.00;101675.59;5045300;28;20068;-82
2022/03/03 07:35:12;;;;;;;1296.25;999.90;;;;;;;-1.74;100.00;101677.78;5029591;28;20111;-82
2022/03/03 07:37:52;;;;;;;1313.72;999.90;;;;;;;-1.92;100.00;101656.69;5034531;28;20057;-82
2022/03/03 07:40:20;;;;;;;1294.60;999.90;;;;;;;-1.82;100.00;101659.16;5036202;28;20050;-82
2022/03/03 07:42:50;;;;;;;1302.10;999.90;;;;;;;-1.93;100.00;101654.19;5026922;28;20117;-83
2022/03/03 07:45:18;;;;;;;1310.80;999.90;;;;;;;-1.82;100.00;101667.16;5019445;28;20060;-82
2022/03/03 07:47:53;;;;;;;1315.68;999.90;;;;;;;-1.71;100.00;101663.28;5019944;28;20062;-85
2022/03/03 07:50:27;;;;;;;1317.88;999.90;;;;;;;-1.66;100.00;101668.06;5027863;28;20053;-82
2022/03/03 07:52:56;;;;;;;1319.40;999.90;;;;;;;-1.81;100.00;101674.16;5028474;28;20692;-82
2022/03/03 07:55:32;;;;;;;1320.00;999.90;;;;;;;-1.86;100.00;101679.19;5026437;28;20060;-83
2022/03/03 07:58:12;;;;;;;1318.93;999.90;;;;;;;-1.89;100.00;101675.00;5021934;28;20049;-82
2022/03/03 08:00:49;;;;;;;1320.63;999.90;;;;;;;-1.81;100.00;101686.66;5024506;28;20060;-82
2022/03/03 08:03:23;;;;;;;1326.78;999.90;;;;;;;-1.73;100.00;101687.47;5024070;28;20061;-83
2022/03/03 08:05:58;;;;;;;1327.32;999.90;;;;;;;-1.68;100.00;101686.94;5025487;28;20399;-82
2022/03/03 08:08:31;;;;;;;1328.90;999.90;;;;;;;-1.47;100.00;101666.81;5026916;28;20045;-83
2022/03/03 08:11:06;;;;;;;1332.88;999.90;;;;;;;-1.42;100.00;101665.28;5018592;28;20634;-83
2022/03/03 08:13:37;;;;;;;1332.85;999.90;;;;;;;-1.47;100.00;101675.66;5021980;28;20494;-82
2022/03/03 08:16:10;;;;;;;1331.20;999.90;;;;;;;-1.28;100.00;101676.22;5022235;28;20050;-82
2022/03/03 08:18:43;;;;;;;1333.68;999.90;;;;;;;-1.23;100.00;101658.66;5027345;28;20111;-82
2022/03/03 08:21:13;;;;;;;1337.82;999.90;;;;;;;-1.15;100.00;101664.94;5029679;28;20050;-83
2022/03/03 08:23:47;;;;;;;1339.25;999.90;;;;;;;-1.16;100.00;101668.63;5022015;28;20056;-82
2022/03/03 08:26:20;;;;;;;1342.82;999.90;;;;;;;-1.16;100.00;101668.63;5014943;28;20053;-81
2022/03/03 08:28:54;;;;;;;1348.57;999.90;;;;;;;-1.05;100.00;101644.16;5023824;28;20064;-82
2022/03/03 08:31:29;;;;;;;1349.20;999.90;;;;;;;-1.02;100.00;101665.19;5015431;28;20057;-82
2022/03/03 08:34:12;;;;;;;1357.03;999.90;;;;;;;-0.93;100.00;101672.13;5012855;28;20053;-81
2022/03/03 08:36:48;;;;;;;1357.50;999.90;;;;;;;-1.05;100.00;101665.53;5016214;28;20049;-83
2022/03/03 08:39:26;;;;;;;1363.93;999.90;;;;;;;-0.84;100.00;101670.22;5009329;28;20052;-83
2022/03/03 08:41:57;;;;;;;1367.25;999.90;;;;;;;-0.78;100.00;101671.34;5011655;28;20060;-83
2022/03/03 08:44:34;;;;;;;1372.80;999.90;;;;;;;-0.74;100.00;101651.25;5014287;28;20061;-82
2022/03/03 08:47:04;;;;;;;1377.00;999.90;;;;;;;-0.64;100.00;101661.69;5015812;28;20041;-81
2022/03/03 08:49:37;;;;;;;1378.93;999.90;;;;;;;-0.74;100.00;101651.25;5012804;28;20057;-83
2022/03/03 08:52:11;;;;;;;1382.32;999.90;;;;;;;-0.86;100.00;101658.88;5029433;28;20053;-82
2022/03/03 08:54:44;;;;;;;1387.95;999.90;;;;;;;-0.87;100.00;101665.22;5030205;28;20054;-82
2022/03/03 08:57:13;;;;;;;1389.35;999.90;;;;;;;-0.94;100.00;101670.47;5013905;28;20065;-82
2022/03/03 08:59:48;;;;;;;1398.40;999.90;;;;;;;-0.95;100.00;101679.50;5016586;28;20053;-82
2022/03/03 09:02:21;;;;;;;1402.45;999.90;;;;;;;-0.76;100.00;101683.53;5010096;28;20045;-82
2022/03/03 09:04:54;;;;;;;1404.28;999.90;;;;;;;-0.78;100.00;101669.50;5013667;28;20053;-83
2022/03/03 09:07:23;;;;;;;1410.38;999.90;;;;;;;-0.73;100.00;101691.19;5016311;28;20053;-82
2022/03/03 09:09:51;;;;;;;1393.57;999.90;;;;;;;-0.71;100.00;101670.44;5014261;28;20064;-82
2022/03/03 09:12:24;;;;;;;1393.45;999.90;;;;;;;-0.58;100.00;101679.69;5029599;28;20057;-82
2022/03/03 09:14:59;;;;;;;1385.82;999.90;;;;;;;-0.57;100.00;101679.50;5012169;28;21640;-82
2022/03/03 09:17:32;;;;;;;1381.10;999.90;;;;;;;-0.54;100.00;101681.81;5012212;28;20049;-82
2022/03/03 09:20:00;;;;;;;1378.93;999.90;;;;;;;-0.58;100.00;101674.31;5013741;28;20057;-81
2022/03/03 09:22:34;;;;;;;1381.32;999.90;;;;;;;-0.44;100.00;101651.31;5012204;28;20045;-82
2022/03/03 09:25:08;;;;;;;1378.80;999.90;;;;;;;-0.37;100.00;101670.97;5008535;28;20056;-81
2022/03/03 09:27:41;;;;;;;1380.85;999.90;;;;;;;-0.41;100.00;101675.03;5010320;28;20045;-81
2022/03/03 09:30:12;;;;;;;1383.00;999.90;;;;;;;-0.20;100.00;101679.66;5012766;28;20063;-81
2022/03/03 09:32:41;;;;;;;1383.47;999.90;;;;;;;-0.26;100.00;101670.53;5012796;28;21387;-81
2022/03/03 09:35:15;;;;;;;1386.47;999.90;;;;;;;-0.30;100.00;101676.41;5012700;28;20057;-81
2022/03/03 09:37:48;;;;;;;1387.85;999.90;;;;;;;-0.12;100.00;101681.44;5013508;28;20513;-81
2022/03/03 09:40:21;;;;;;;1384.75;999.90;;;;;;;-0.19;100.00;101682.13;5009203;28;20072;-82
2022/03/03 09:42:57;;;;;;;1395.05;999.90;;;;;;;-0.04;100.00;101678.66;5010891;28;20418;-81
2022/03/03 09:45:33;;;;;;;1397.13;999.90;;;;;;;0.19;100.00;101691.91;5005739;28;20478;-81
2022/03/03 09:48:07;;;;;;;1396.22;999.90;;;;;;;0.16;100.00;101687.75;5016139;28;20053;-81
2022/03/03 09:50:42;;;;;;;1410.68;999.90;;;;;;;0.01;100.00;101689.63;5013142;28;20626;-82
2022/03/03 09:53:18;;;;;;;1410.72;999.90;;;;;;;0.09;100.00;101689.53;5010421;28;20060;-82
2022/03/03 09:55:51;;;;;;;1412.47;999.90;;;;;;;0.03;100.00;101695.63;5012989;28;20041;-82
2022/03/03 09:58:25;;;;;;;1411.38;999.90;;;;;;;0.07;100.00;101686.22;5014855;28;20057;-81
2022/03/03 10:00:59;;;;;;;1413.75;999.90;;;;;;;0.07;100.00;101688.03;5012023;28;20049;-82
2022/03/03 10:03:32;;;;;;;1423.00;999.90;;;;;;;0.05;100.00;101685.56;5003021;28;20062;-82
2022/03/03 10:06:06;;;;;;;1427.45;999.90;;;;;;;0.35;100.00;101674.81;5007203;28;20058;-82
2022/03/03 10:08:39;;;;;;;1428.93;999.90;;;;;;;0.55;100.00;101684.94;5008301;28;20041;-81
2022/03/03 10:11:13;;;;;;;1458.22;999.90;;;;;;;0.55;100.00;101674.22;5007956;28;20282;-81
2022/03/03 10:13:49;;;;;;;1465.93;999.90;;;;;;;0.48;100.00;101688.38;5012313;28;20054;-81
2022/03/03 10:16:29;;;;;;;1456.40;999.90;;;;;;;0.20;100.00;101680.19;5010725;28;20068;-82
2022/03/03 10:19:03;;;;;;;1461.57;999.90;;;;;;;0.32;100.00;101689.41;5028811;28;20061;-83
2022/03/03 10:21:38;;;;;;;1484.85;999.90;;;;;;;0.66;100.00;101684.44;5012752;28;20060;-82
2022/03/03 10:24:22;;;;;;;1494.57;999.90;;;;;;;0.85;100.00;101683.00;5013572;28;20045;-82
2022/03/03 10:26:59;;;;;;;1519.00;999.90;;;;;;;1.08;100.00;101666.75;5014942;28;20064;-82
2022/03/03 10:29:34;;;;;;;1535.13;999.90;;;;;;;1.27;100.00;101681.34;5009236;28;20068;-81
2022/03/03 10:32:23;;;;;;;1529.00;999.90;;;;;;;0.94;100.00;101670.31;5011265;28;20058;-81
2022/03/03 10:35:02;;;;;;;1558.55;999.90;;;;;;;0.78;100.00;101676.75;5012651;28;20049;-81
2022/03/03 10:37:32;;;;;;;1605.70;999.90;;;;;;;0.85;100.00;101689.19;5018235;28;20061;-80
2022/03/03 10:40:12;;;;;;;1653.72;999.90;;;;;;;1.21;100.00;101676.75;5019555;28;20062;-80
2022/03/03 10:42:44;;;;;;;1671.00;999.90;;;;;;;1.14;100.00;101687.41;5019923;28;20458;-80
2022/03/03 10:45:19;;;;;;;1705.20;999.90;;;;;;;1.29;100.00;101687.34;5014174;28;20057;-81
2022/03/03 10:48:03;;;;;;;1721.65;999.90;;;;;;;1.25;100.00;101686.06;5014229;28;20383;-78
2022/03/03 10:50:46;;;;;;;1749.07;999.90;;;;;;;1.46;100.00;101687.06;5020224;28;20694;-81
2022/03/03 10:53:20;;;;;;;1781.60;999.90;;;;;;;1.46;100.00;101677.16;5010607;28;20053;-80
2022/03/03 10:56:01;;;;;;;1813.18;999.90;;;;;;;1.61;100.00;101682.44;5009253;28;20053;-82
2022/03/03 10:58:44;;;;;;;1851.53;999.90;;;;;;;1.63;100.00;101691.13;5011872;28;20710;-79
2022/03/03 11:01:22;;;;;;;1906.60;999.90;;;;;;;2.01;100.00;101677.31;5013393;28;20057;-79
2022/03/03 11:03:57;;;;;;;1940.15;999.90;;;;;;;2.15;100.00;101675.53;5008381;28;20045;-81
2022/03/03 11:06:28;;;;;;;1955.35;999.90;;;;;;;1.85;100.00;101691.91;4994074;28;21502;-79
2022/03/03 11:09:01;;;;;;;1999.90;999.90;;;;;;;2.02;100.00;101689.72;5012164;28;20049;-79